Aviation Digital Data Service (ADDS)

Output produced by METARs form (0006 UTC 24 May 2022)
found at http://www.aviationweather.gov/metar/data/
 
TAF TDPD 232300Z 2400/2424 11010KT 9999 SCT018